sensor_id;sensor_type;location;lat;lon;timestamp;P1;durP1;ratioP1;P2;durP2;ratioP2
17592;SDS011;8915;51.760;14.300;2023-08-12T00:02:09;4.97;;;4.47;;
17592;SDS011;8915;51.760;14.300;2023-08-12T00:04:36;6.27;;;4.60;;
17592;SDS011;8915;51.760;14.300;2023-08-12T00:07:02;6.90;;;4.20;;
17592;SDS011;8915;51.760;14.300;2023-08-12T00:09:29;4.80;;;4.30;;
17592;SDS011;8915;51.760;14.300;2023-08-12T00:11:56;5.00;;;4.50;;
17592;SDS011;8915;51.760;14.300;2023-08-12T00:14:22;4.73;;;4.10;;
17592;SDS011;8915;51.760;14.300;2023-08-12T00:16:49;4.87;;;4.27;;
17592;SDS011;8915;51.760;14.300;2023-08-12T00:19:15;4.37;;;3.90;;
17592;SDS011;8915;51.760;14.300;2023-08-12T00:21:41;4.93;;;4.33;;
17592;SDS011;8915;51.760;14.300;2023-08-12T00:24:08;5.37;;;4.20;;
17592;SDS011;8915;51.760;14.300;2023-08-12T00:26:34;6.67;;;4.10;;
17592;SDS011;8915;51.760;14.300;2023-08-12T00:29:02;5.50;;;4.70;;
17592;SDS011;8915;51.760;14.300;2023-08-12T00:31:29;5.80;;;4.83;;
17592;SDS011;8915;51.760;14.300;2023-08-12T00:33:55;6.40;;;5.10;;
17592;SDS011;8915;51.760;14.300;2023-08-12T00:36:22;6.27;;;4.80;;
17592;SDS011;8915;51.760;14.300;2023-08-12T00:38:48;5.50;;;4.60;;
17592;SDS011;8915;51.760;14.300;2023-08-12T00:41:14;6.23;;;4.87;;
17592;SDS011;8915;51.760;14.300;2023-08-12T00:43:41;6.90;;;5.23;;
17592;SDS011;8915;51.760;14.300;2023-08-12T00:46:08;6.37;;;4.80;;
17592;SDS011;8915;51.760;14.300;2023-08-12T00:48:34;7.33;;;5.10;;
17592;SDS011;8915;51.760;14.300;2023-08-12T00:51:01;5.03;;;4.63;;
17592;SDS011;8915;51.760;14.300;2023-08-12T00:53:28;8.23;;;5.13;;
17592;SDS011;8915;51.760;14.300;2023-08-12T00:55:54;8.87;;;5.37;;
17592;SDS011;8915;51.760;14.300;2023-08-12T00:58:21;4.90;;;4.50;;
17592;SDS011;8915;51.760;14.300;2023-08-12T01:00:48;8.17;;;5.10;;
17592;SDS011;8915;51.760;14.300;2023-08-12T01:03:18;5.37;;;4.67;;
17592;SDS011;8915;51.760;14.300;2023-08-12T01:05:45;9.07;;;4.40;;
17592;SDS011;8915;51.760;14.300;2023-08-12T01:08:12;5.23;;;4.27;;
17592;SDS011;8915;51.760;14.300;2023-08-12T01:10:39;6.87;;;4.80;;
17592;SDS011;8915;51.760;14.300;2023-08-12T01:13:17;4.93;;;4.20;;
17592;SDS011;8915;51.760;14.300;2023-08-12T01:15:49;5.57;;;4.37;;
17592;SDS011;8915;51.760;14.300;2023-08-12T01:18:21;7.83;;;4.63;;
17592;SDS011;8915;51.760;14.300;2023-08-12T01:20:50;7.50;;;4.90;;
17592;SDS011;8915;51.760;14.300;2023-08-12T01:23:18;5.30;;;4.80;;
17592;SDS011;8915;51.760;14.300;2023-08-12T01:25:45;8.40;;;5.10;;
17592;SDS011;8915;51.760;14.300;2023-08-12T01:28:13;6.37;;;5.10;;
17592;SDS011;8915;51.760;14.300;2023-08-12T01:30:41;8.43;;;5.10;;
17592;SDS011;8915;51.760;14.300;2023-08-12T01:33:14;7.53;;;4.87;;
17592;SDS011;8915;51.760;14.300;2023-08-12T01:35:49;5.70;;;4.40;;
17592;SDS011;8915;51.760;14.300;2023-08-12T01:38:21;5.73;;;5.13;;
17592;SDS011;8915;51.760;14.300;2023-08-12T01:40:51;5.80;;;4.93;;
17592;SDS011;8915;51.760;14.300;2023-08-12T01:43:18;6.87;;;4.97;;
17592;SDS011;8915;51.760;14.300;2023-08-12T01:45:45;5.13;;;4.40;;
17592;SDS011;8915;51.760;14.300;2023-08-12T01:48:11;5.80;;;4.83;;
17592;SDS011;8915;51.760;14.300;2023-08-12T01:50:38;7.80;;;4.87;;
17592;SDS011;8915;51.760;14.300;2023-08-12T01:53:05;4.83;;;4.10;;
17592;SDS011;8915;51.760;14.300;2023-08-12T01:55:32;5.50;;;5.00;;
17592;SDS011;8915;51.760;14.300;2023-08-12T01:57:59;4.93;;;4.47;;
17592;SDS011;8915;51.760;14.300;2023-08-12T02:00:25;5.30;;;4.60;;
17592;SDS011;8915;51.760;14.300;2023-08-12T02:02:51;6.63;;;4.83;;
17592;SDS011;8915;51.760;14.300;2023-08-12T02:05:18;5.10;;;4.60;;
17592;SDS011;8915;51.760;14.300;2023-08-12T02:07:44;5.83;;;4.43;;
17592;SDS011;8915;51.760;14.300;2023-08-12T02:10:10;5.80;;;4.70;;
17592;SDS011;8915;51.760;14.300;2023-08-12T02:12:40;5.33;;;4.50;;
17592;SDS011;8915;51.760;14.300;2023-08-12T02:15:07;6.73;;;4.90;;
17592;SDS011;8915;51.760;14.300;2023-08-12T02:17:34;5.07;;;4.57;;
17592;SDS011;8915;51.760;14.300;2023-08-12T02:20:00;4.67;;;4.27;;
17592;SDS011;8915;51.760;14.300;2023-08-12T02:22:28;5.83;;;4.70;;
17592;SDS011;8915;51.760;14.300;2023-08-12T02:24:55;4.40;;;4.00;;
17592;SDS011;8915;51.760;14.300;2023-08-12T02:27:21;5.60;;;5.00;;
17592;SDS011;8915;51.760;14.300;2023-08-12T02:29:49;6.33;;;5.30;;
17592;SDS011;8915;51.760;14.300;2023-08-12T02:32:15;5.47;;;4.97;;
17592;SDS011;8915;51.760;14.300;2023-08-12T02:34:42;4.93;;;4.47;;
17592;SDS011;8915;51.760;14.300;2023-08-12T02:37:09;5.47;;;4.90;;
17592;SDS011;8915;51.760;14.300;2023-08-12T02:39:37;5.20;;;4.70;;
17592;SDS011;8915;51.760;14.300;2023-08-12T02:42:04;5.40;;;4.90;;
17592;SDS011;8915;51.760;14.300;2023-08-12T02:44:30;5.57;;;4.90;;
17592;SDS011;8915;51.760;14.300;2023-08-12T02:46:58;6.70;;;5.13;;
17592;SDS011;8915;51.760;14.300;2023-08-12T02:49:24;5.83;;;4.73;;
17592;SDS011;8915;51.760;14.300;2023-08-12T02:51:51;5.37;;;4.70;;
17592;SDS011;8915;51.760;14.300;2023-08-12T02:54:17;5.40;;;4.53;;
17592;SDS011;8915;51.760;14.300;2023-08-12T02:56:44;8.00;;;5.07;;
17592;SDS011;8915;51.760;14.300;2023-08-12T02:59:10;5.77;;;5.17;;
17592;SDS011;8915;51.760;14.300;2023-08-12T03:01:36;7.30;;;5.10;;
17592;SDS011;8915;51.760;14.300;2023-08-12T03:04:04;6.20;;;5.10;;
17592;SDS011;8915;51.760;14.300;2023-08-12T03:06:31;4.87;;;4.43;;
17592;SDS011;8915;51.760;14.300;2023-08-12T03:08:57;5.70;;;4.63;;
17592;SDS011;8915;51.760;14.300;2023-08-12T03:11:24;6.37;;;5.50;;
17592;SDS011;8915;51.760;14.300;2023-08-12T03:13:52;6.90;;;5.00;;
17592;SDS011;8915;51.760;14.300;2023-08-12T03:16:21;6.00;;;5.00;;
17592;SDS011;8915;51.760;14.300;2023-08-12T03:18:47;5.93;;;5.37;;
17592;SDS011;8915;51.760;14.300;2023-08-12T03:21:15;7.67;;;5.40;;
17592;SDS011;8915;51.760;14.300;2023-08-12T03:23:42;6.80;;;4.80;;
17592;SDS011;8915;51.760;14.300;2023-08-12T03:26:09;6.97;;;5.40;;
17592;SDS011;8915;51.760;14.300;2023-08-12T03:28:36;6.50;;;4.90;;
17592;SDS011;8915;51.760;14.300;2023-08-12T03:31:02;6.97;;;5.30;;
17592;SDS011;8915;51.760;14.300;2023-08-12T03:33:31;6.03;;;5.30;;
17592;SDS011;8915;51.760;14.300;2023-08-12T03:35:59;5.80;;;5.20;;
17592;SDS011;8915;51.760;14.300;2023-08-12T03:38:27;6.00;;;4.57;;
17592;SDS011;8915;51.760;14.300;2023-08-12T03:40:53;7.67;;;5.17;;
17592;SDS011;8915;51.760;14.300;2023-08-12T03:43:20;5.93;;;5.33;;
17592;SDS011;8915;51.760;14.300;2023-08-12T03:45:48;6.33;;;5.30;;
17592;SDS011;8915;51.760;14.300;2023-08-12T03:48:17;6.30;;;5.27;;
17592;SDS011;8915;51.760;14.300;2023-08-12T03:50:43;6.17;;;5.23;;
17592;SDS011;8915;51.760;14.300;2023-08-12T03:53:12;9.57;;;5.40;;
17592;SDS011;8915;51.760;14.300;2023-08-12T03:55:40;8.00;;;5.70;;
17592;SDS011;8915;51.760;14.300;2023-08-12T03:58:08;6.10;;;5.37;;
17592;SDS011;8915;51.760;14.300;2023-08-12T04:00:34;7.53;;;5.37;;
17592;SDS011;8915;51.760;14.300;2023-08-12T04:03:02;7.03;;;5.50;;
17592;SDS011;8915;51.760;14.300;2023-08-12T04:05:28;7.20;;;4.77;;
17592;SDS011;8915;51.760;14.300;2023-08-12T04:07:55;6.70;;;5.53;;
17592;SDS011;8915;51.760;14.300;2023-08-12T04:10:21;6.53;;;5.53;;
17592;SDS011;8915;51.760;14.300;2023-08-12T04:12:49;6.20;;;5.60;;
17592;SDS011;8915;51.760;14.300;2023-08-12T04:15:16;6.43;;;5.60;;
17592;SDS011;8915;51.760;14.300;2023-08-12T04:17:43;8.37;;;5.23;;
17592;SDS011;8915;51.760;14.300;2023-08-12T04:20:09;5.67;;;5.07;;
17592;SDS011;8915;51.760;14.300;2023-08-12T04:22:36;6.53;;;5.50;;
17592;SDS011;8915;51.760;14.300;2023-08-12T04:25:03;6.10;;;4.80;;
17592;SDS011;8915;51.760;14.300;2023-08-12T04:27:30;7.33;;;4.70;;
17592;SDS011;8915;51.760;14.300;2023-08-12T04:30:00;5.03;;;4.53;;
17592;SDS011;8915;51.760;14.300;2023-08-12T04:32:28;6.07;;;5.20;;
17592;SDS011;8915;51.760;14.300;2023-08-12T04:34:54;8.27;;;5.17;;
17592;SDS011;8915;51.760;14.300;2023-08-12T04:37:21;5.67;;;5.10;;
17592;SDS011;8915;51.760;14.300;2023-08-12T04:39:49;9.80;;;5.30;;
17592;SDS011;8915;51.760;14.300;2023-08-12T04:42:15;5.40;;;4.90;;
17592;SDS011;8915;51.760;14.300;2023-08-12T04:44:44;5.90;;;5.40;;
17592;SDS011;8915;51.760;14.300;2023-08-12T04:47:11;5.27;;;4.77;;
17592;SDS011;8915;51.760;14.300;2023-08-12T04:49:39;6.07;;;4.93;;
17592;SDS011;8915;51.760;14.300;2023-08-12T04:52:06;7.97;;;5.13;;
17592;SDS011;8915;51.760;14.300;2023-08-12T04:54:33;5.67;;;4.70;;
17592;SDS011;8915;51.760;14.300;2023-08-12T04:57:00;5.13;;;4.63;;
17592;SDS011;8915;51.760;14.300;2023-08-12T04:59:26;5.43;;;4.93;;
17592;SDS011;8915;51.760;14.300;2023-08-12T05:01:53;6.37;;;4.53;;
17592;SDS011;8915;51.760;14.300;2023-08-12T05:04:21;5.33;;;4.50;;
17592;SDS011;8915;51.760;14.300;2023-08-12T05:06:48;6.20;;;4.40;;
17592;SDS011;8915;51.760;14.300;2023-08-12T05:09:15;6.80;;;5.00;;
17592;SDS011;8915;51.760;14.300;2023-08-12T05:11:42;6.43;;;4.43;;
17592;SDS011;8915;51.760;14.300;2023-08-12T05:14:08;5.40;;;4.63;;
17592;SDS011;8915;51.760;14.300;2023-08-12T05:16:35;5.93;;;4.80;;
17592;SDS011;8915;51.760;14.300;2023-08-12T05:19:01;7.33;;;4.60;;
17592;SDS011;8915;51.760;14.300;2023-08-12T05:21:29;9.53;;;4.63;;
17592;SDS011;8915;51.760;14.300;2023-08-12T05:23:55;4.50;;;4.03;;
17592;SDS011;8915;51.760;14.300;2023-08-12T05:26:22;6.87;;;4.10;;
17592;SDS011;8915;51.760;14.300;2023-08-12T05:28:48;6.67;;;4.40;;
17592;SDS011;8915;51.760;14.300;2023-08-12T05:31:15;5.50;;;4.53;;
17592;SDS011;8915;51.760;14.300;2023-08-12T05:33:41;5.73;;;4.47;;
17592;SDS011;8915;51.760;14.300;2023-08-12T05:36:07;4.40;;;4.00;;
17592;SDS011;8915;51.760;14.300;2023-08-12T05:38:35;7.63;;;4.40;;
17592;SDS011;8915;51.760;14.300;2023-08-12T05:41:02;4.60;;;4.10;;
17592;SDS011;8915;51.760;14.300;2023-08-12T05:43:32;6.60;;;4.10;;
17592;SDS011;8915;51.760;14.300;2023-08-12T05:45:58;5.70;;;4.00;;
17592;SDS011;8915;51.760;14.300;2023-08-12T05:48:24;5.93;;;4.27;;
17592;SDS011;8915;51.760;14.300;2023-08-12T05:50:51;7.17;;;3.97;;
17592;SDS011;8915;51.760;14.300;2023-08-12T05:53:17;6.20;;;4.23;;
17592;SDS011;8915;51.760;14.300;2023-08-12T05:55:45;5.23;;;3.90;;
17592;SDS011;8915;51.760;14.300;2023-08-12T05:58:11;6.90;;;4.30;;
17592;SDS011;8915;51.760;14.300;2023-08-12T06:00:37;6.00;;;3.87;;
17592;SDS011;8915;51.760;14.300;2023-08-12T06:03:03;4.90;;;4.10;;
17592;SDS011;8915;51.760;14.300;2023-08-12T06:05:30;5.70;;;4.70;;
17592;SDS011;8915;51.760;14.300;2023-08-12T06:07:56;8.47;;;4.40;;
17592;SDS011;8915;51.760;14.300;2023-08-12T06:10:23;4.40;;;3.80;;
17592;SDS011;8915;51.760;14.300;2023-08-12T06:12:50;5.80;;;4.13;;
17592;SDS011;8915;51.760;14.300;2023-08-12T06:15:17;5.13;;;3.83;;
17592;SDS011;8915;51.760;14.300;2023-08-12T06:17:43;6.80;;;4.00;;
17592;SDS011;8915;51.760;14.300;2023-08-12T06:20:10;5.40;;;4.20;;
17592;SDS011;8915;51.760;14.300;2023-08-12T06:22:37;7.20;;;3.63;;
17592;SDS011;8915;51.760;14.300;2023-08-12T06:25:03;4.20;;;3.80;;
17592;SDS011;8915;51.760;14.300;2023-08-12T06:27:30;3.70;;;3.37;;
17592;SDS011;8915;51.760;14.300;2023-08-12T06:29:58;5.13;;;3.57;;
17592;SDS011;8915;51.760;14.300;2023-08-12T06:32:24;4.37;;;3.40;;
17592;SDS011;8915;51.760;14.300;2023-08-12T06:34:50;4.80;;;3.23;;
17592;SDS011;8915;51.760;14.300;2023-08-12T06:37:16;5.90;;;3.60;;
17592;SDS011;8915;51.760;14.300;2023-08-12T06:39:43;5.53;;;3.70;;
17592;SDS011;8915;51.760;14.300;2023-08-12T06:42:09;4.43;;;3.67;;
17592;SDS011;8915;51.760;14.300;2023-08-12T06:44:35;3.70;;;3.40;;
17592;SDS011;8915;51.760;14.300;2023-08-12T06:47:03;4.73;;;3.90;;
17592;SDS011;8915;51.760;14.300;2023-08-12T06:49:29;3.70;;;3.20;;
17592;SDS011;8915;51.760;14.300;2023-08-12T06:51:56;4.73;;;3.50;;
17592;SDS011;8915;51.760;14.300;2023-08-12T06:54:22;4.13;;;3.73;;
17592;SDS011;8915;51.760;14.300;2023-08-12T06:56:49;6.40;;;3.33;;
17592;SDS011;8915;51.760;14.300;2023-08-12T06:59:16;5.97;;;3.50;;
17592;SDS011;8915;51.760;14.300;2023-08-12T07:01:42;5.23;;;3.77;;
17592;SDS011;8915;51.760;14.300;2023-08-12T07:04:10;3.73;;;3.13;;
17592;SDS011;8915;51.760;14.300;2023-08-12T07:06:36;5.30;;;3.53;;
17592;SDS011;8915;51.760;14.300;2023-08-12T07:09:03;4.70;;;3.70;;
17592;SDS011;8915;51.760;14.300;2023-08-12T07:11:29;5.30;;;3.43;;
17592;SDS011;8915;51.760;14.300;2023-08-12T07:13:56;7.07;;;3.20;;
17592;SDS011;8915;51.760;14.300;2023-08-12T07:16:22;3.95;;;3.13;;
17592;SDS011;8915;51.760;14.300;2023-08-12T07:18:48;4.65;;;3.03;;
17592;SDS011;8915;51.760;14.300;2023-08-12T07:21:16;5.68;;;3.10;;
17592;SDS011;8915;51.760;14.300;2023-08-12T07:23:42;3.47;;;2.80;;
17592;SDS011;8915;51.760;14.300;2023-08-12T07:26:09;3.50;;;3.05;;
17592;SDS011;8915;51.760;14.300;2023-08-12T07:28:36;4.00;;;3.03;;
17592;SDS011;8915;51.760;14.300;2023-08-12T07:31:02;6.38;;;3.20;;
17592;SDS011;8915;51.760;14.300;2023-08-12T07:33:28;3.35;;;2.88;;
17592;SDS011;8915;51.760;14.300;2023-08-12T07:35:55;3.72;;;3.10;;
17592;SDS011;8915;51.760;14.300;2023-08-12T07:38:22;5.32;;;3.10;;
17592;SDS011;8915;51.760;14.300;2023-08-12T07:40:49;3.63;;;2.90;;
17592;SDS011;8915;51.760;14.300;2023-08-12T07:43:15;4.68;;;2.80;;
17592;SDS011;8915;51.760;14.300;2023-08-12T07:45:42;3.30;;;3.00;;
17592;SDS011;8915;51.760;14.300;2023-08-12T07:48:08;3.20;;;2.95;;
17592;SDS011;8915;51.760;14.300;2023-08-12T07:50:35;4.00;;;3.10;;
17592;SDS011;8915;51.760;14.300;2023-08-12T07:53:01;3.78;;;2.90;;
17592;SDS011;8915;51.760;14.300;2023-08-12T07:55:29;2.67;;;2.47;;
17592;SDS011;8915;51.760;14.300;2023-08-12T07:57:55;3.70;;;2.80;;
17592;SDS011;8915;51.760;14.300;2023-08-12T08:00:21;4.00;;;3.05;;
17592;SDS011;8915;51.760;14.300;2023-08-12T08:02:48;3.30;;;3.00;;
17592;SDS011;8915;51.760;14.300;2023-08-12T08:05:14;3.05;;;2.72;;
17592;SDS011;8915;51.760;14.300;2023-08-12T08:07:41;4.60;;;3.00;;
17592;SDS011;8915;51.760;14.300;2023-08-12T08:10:07;3.58;;;2.90;;
17592;SDS011;8915;51.760;14.300;2023-08-12T08:12:35;4.85;;;2.90;;
17592;SDS011;8915;51.760;14.300;2023-08-12T08:15:02;4.00;;;2.67;;
17592;SDS011;8915;51.760;14.300;2023-08-12T08:17:36;4.47;;;2.97;;
17592;SDS011;8915;51.760;14.300;2023-08-12T08:20:03;5.13;;;3.00;;
17592;SDS011;8915;51.760;14.300;2023-08-12T08:22:30;3.42;;;3.05;;
17592;SDS011;8915;51.760;14.300;2023-08-12T08:24:57;4.15;;;2.90;;
17592;SDS011;8915;51.760;14.300;2023-08-12T08:27:23;4.20;;;3.30;;
17592;SDS011;8915;51.760;14.300;2023-08-12T08:29:51;5.05;;;3.05;;
17592;SDS011;8915;51.760;14.300;2023-08-12T08:32:17;5.40;;;3.20;;
17592;SDS011;8915;51.760;14.300;2023-08-12T08:34:45;2.78;;;2.58;;
17592;SDS011;8915;51.760;14.300;2023-08-12T08:37:11;3.58;;;2.90;;
17592;SDS011;8915;51.760;14.300;2023-08-12T08:39:37;3.42;;;3.05;;
17592;SDS011;8915;51.760;14.300;2023-08-12T08:42:04;6.35;;;2.90;;
17592;SDS011;8915;51.760;14.300;2023-08-12T08:44:31;2.88;;;2.65;;
17592;SDS011;8915;51.760;14.300;2023-08-12T08:46:59;3.88;;;2.88;;
17592;SDS011;8915;51.760;14.300;2023-08-12T08:49:25;7.93;;;3.90;;
17592;SDS011;8915;51.760;14.300;2023-08-12T08:51:55;3.80;;;3.05;;
17592;SDS011;8915;51.760;14.300;2023-08-12T08:54:22;6.50;;;3.15;;
17592;SDS011;8915;51.760;14.300;2023-08-12T08:56:49;6.75;;;3.53;;
17592;SDS011;8915;51.760;14.300;2023-08-12T08:59:15;3.50;;;2.83;;
17592;SDS011;8915;51.760;14.300;2023-08-12T09:01:42;3.95;;;3.20;;
17592;SDS011;8915;51.760;14.300;2023-08-12T09:04:11;5.53;;;3.30;;
17592;SDS011;8915;51.760;14.300;2023-08-12T09:06:39;3.33;;;3.00;;
17592;SDS011;8915;51.760;14.300;2023-08-12T09:09:07;5.40;;;3.45;;
17592;SDS011;8915;51.760;14.300;2023-08-12T09:11:38;3.55;;;3.20;;
17592;SDS011;8915;51.760;14.300;2023-08-12T09:14:05;3.47;;;2.88;;
17592;SDS011;8915;51.760;14.300;2023-08-12T09:16:32;4.25;;;3.28;;
17592;SDS011;8915;51.760;14.300;2023-08-12T09:18:58;3.78;;;3.15;;
17592;SDS011;8915;51.760;14.300;2023-08-12T09:21:25;5.82;;;3.72;;
17592;SDS011;8915;51.760;14.300;2023-08-12T09:23:51;4.68;;;3.40;;
17592;SDS011;8915;51.760;14.300;2023-08-12T09:26:19;7.43;;;4.03;;
17592;SDS011;8915;51.760;14.300;2023-08-12T09:28:47;5.57;;;3.17;;
17592;SDS011;8915;51.760;14.300;2023-08-12T09:31:21;3.40;;;3.10;;
17592;SDS011;8915;51.760;14.300;2023-08-12T09:33:49;3.10;;;2.80;;
17592;SDS011;8915;51.760;14.300;2023-08-12T09:36:16;4.47;;;3.28;;
17592;SDS011;8915;51.760;14.300;2023-08-12T09:38:43;4.95;;;3.25;;
17592;SDS011;8915;51.760;14.300;2023-08-12T09:41:09;3.50;;;3.20;;
17592;SDS011;8915;51.760;14.300;2023-08-12T09:43:40;2.95;;;2.65;;
17592;SDS011;8915;51.760;14.300;2023-08-12T09:46:10;3.30;;;2.63;;
17592;SDS011;8915;51.760;14.300;2023-08-12T09:48:37;3.40;;;2.83;;
17592;SDS011;8915;51.760;14.300;2023-08-12T09:51:03;3.50;;;3.10;;
17592;SDS011;8915;51.760;14.300;2023-08-12T09:53:31;3.55;;;2.90;;
17592;SDS011;8915;51.760;14.300;2023-08-12T09:55:59;2.95;;;2.58;;
17592;SDS011;8915;51.760;14.300;2023-08-12T09:58:32;2.97;;;2.72;;
17592;SDS011;8915;51.760;14.300;2023-08-12T10:01:03;4.05;;;3.33;;
17592;SDS011;8915;51.760;14.300;2023-08-12T10:03:31;2.63;;;2.42;;
17592;SDS011;8915;51.760;14.300;2023-08-12T10:05:58;2.97;;;2.60;;
17592;SDS011;8915;51.760;14.300;2023-08-12T10:08:26;2.90;;;2.70;;
17592;SDS011;8915;51.760;14.300;2023-08-12T10:10:53;3.95;;;3.20;;
17592;SDS011;8915;51.760;14.300;2023-08-12T10:13:19;3.92;;;2.90;;
17592;SDS011;8915;51.760;14.300;2023-08-12T10:15:47;3.05;;;2.78;;
17592;SDS011;8915;51.760;14.300;2023-08-12T10:18:15;2.70;;;2.50;;
17592;SDS011;8915;51.760;14.300;2023-08-12T10:20:44;4.05;;;2.90;;
17592;SDS011;8915;51.760;14.300;2023-08-12T10:23:12;3.92;;;2.95;;
17592;SDS011;8915;51.760;14.300;2023-08-12T10:25:41;2.75;;;2.50;;
17592;SDS011;8915;51.760;14.300;2023-08-12T10:28:09;2.78;;;2.58;;
17592;SDS011;8915;51.760;14.300;2023-08-12T10:30:36;4.68;;;3.05;;
17592;SDS011;8915;51.760;14.300;2023-08-12T10:33:03;4.50;;;3.10;;
17592;SDS011;8915;51.760;14.300;2023-08-12T10:35:42;2.78;;;2.47;;
17592;SDS011;8915;51.760;14.300;2023-08-12T10:38:10;3.80;;;3.22;;
17592;SDS011;8915;51.760;14.300;2023-08-12T10:40:37;3.67;;;2.92;;
17592;SDS011;8915;51.760;14.300;2023-08-12T10:43:04;4.10;;;3.00;;
17592;SDS011;8915;51.760;14.300;2023-08-12T10:45:40;2.60;;;2.40;;
17592;SDS011;8915;51.760;14.300;2023-08-12T10:50:54;4.15;;;2.60;;
17592;SDS011;8915;51.760;14.300;2023-08-12T10:53:23;3.90;;;2.70;;
17592;SDS011;8915;51.760;14.300;2023-08-12T10:55:54;3.50;;;3.00;;
17592;SDS011;8915;51.760;14.300;2023-08-12T10:58:29;4.00;;;2.88;;
17592;SDS011;8915;51.760;14.300;2023-08-12T11:00:59;3.22;;;2.70;;
17592;SDS011;8915;51.760;14.300;2023-08-12T11:03:26;4.00;;;2.75;;
17592;SDS011;8915;51.760;14.300;2023-08-12T11:05:54;3.88;;;2.63;;
17592;SDS011;8915;51.760;14.300;2023-08-12T11:08:26;2.63;;;2.42;;
17592;SDS011;8915;51.760;14.300;2023-08-12T11:10:54;3.30;;;2.70;;
17592;SDS011;8915;51.760;14.300;2023-08-12T11:13:22;2.78;;;2.50;;
17592;SDS011;8915;51.760;14.300;2023-08-12T11:15:49;2.85;;;2.60;;
17592;SDS011;8915;51.760;14.300;2023-08-12T11:18:16;3.63;;;2.67;;
17592;SDS011;8915;51.760;14.300;2023-08-12T11:20:44;4.70;;;2.75;;
17592;SDS011;8915;51.760;14.300;2023-08-12T11:23:12;5.03;;;3.05;;
17592;SDS011;8915;51.760;14.300;2023-08-12T11:25:39;4.55;;;2.83;;
17592;SDS011;8915;51.760;14.300;2023-08-12T11:28:07;6.15;;;2.80;;
17592;SDS011;8915;51.760;14.300;2023-08-12T11:30:34;4.00;;;2.65;;
17592;SDS011;8915;51.760;14.300;2023-08-12T11:33:01;3.25;;;2.40;;
17592;SDS011;8915;51.760;14.300;2023-08-12T11:35:28;4.90;;;2.58;;
17592;SDS011;8915;51.760;14.300;2023-08-12T11:37:55;4.20;;;2.42;;
17592;SDS011;8915;51.760;14.300;2023-08-12T11:40:25;4.35;;;2.90;;
17592;SDS011;8915;51.760;14.300;2023-08-12T11:42:52;4.03;;;2.60;;
17592;SDS011;8915;51.760;14.300;2023-08-12T11:45:21;3.05;;;2.55;;
17592;SDS011;8915;51.760;14.300;2023-08-12T11:47:48;2.38;;;2.17;;
17592;SDS011;8915;51.760;14.300;2023-08-12T11:50:18;2.65;;;2.40;;
17592;SDS011;8915;51.760;14.300;2023-08-12T11:52:46;3.03;;;2.00;;
17592;SDS011;8915;51.760;14.300;2023-08-12T11:55:13;2.28;;;2.08;;
17592;SDS011;8915;51.760;14.300;2023-08-12T11:57:41;2.67;;;2.42;;
17592;SDS011;8915;51.760;14.300;2023-08-12T12:00:09;2.22;;;1.98;;
17592;SDS011;8915;51.760;14.300;2023-08-12T12:02:39;4.28;;;2.13;;
17592;SDS011;8915;51.760;14.300;2023-08-12T12:05:08;2.38;;;2.10;;
17592;SDS011;8915;51.760;14.300;2023-08-12T12:07:37;2.60;;;2.35;;
17592;SDS011;8915;51.760;14.300;2023-08-12T12:10:04;1.80;;;1.70;;
17592;SDS011;8915;51.760;14.300;2023-08-12T12:12:32;4.18;;;2.15;;
17592;SDS011;8915;51.760;14.300;2023-08-12T12:15:00;2.85;;;2.10;;
17592;SDS011;8915;51.760;14.300;2023-08-12T12:17:27;2.75;;;2.03;;
17592;SDS011;8915;51.760;14.300;2023-08-12T12:19:54;5.60;;;2.20;;
17592;SDS011;8915;51.760;14.300;2023-08-12T12:22:25;2.35;;;1.90;;
17592;SDS011;8915;51.760;14.300;2023-08-12T12:24:52;3.28;;;1.98;;
17592;SDS011;8915;51.760;14.300;2023-08-12T12:27:19;1.85;;;1.75;;
17592;SDS011;8915;51.760;14.300;2023-08-12T12:29:45;2.47;;;1.83;;
17592;SDS011;8915;51.760;14.300;2023-08-12T12:32:13;3.80;;;1.90;;
17592;SDS011;8915;51.760;14.300;2023-08-12T12:34:39;2.10;;;1.80;;
17592;SDS011;8915;51.760;14.300;2023-08-12T12:37:05;4.88;;;2.10;;
17592;SDS011;8915;51.760;14.300;2023-08-12T12:39:32;2.03;;;1.80;;
17592;SDS011;8915;51.760;14.300;2023-08-12T12:41:59;2.10;;;1.63;;
17592;SDS011;8915;51.760;14.300;2023-08-12T12:44:26;1.85;;;1.65;;
17592;SDS011;8915;51.760;14.300;2023-08-12T12:46:52;1.73;;;1.63;;
17592;SDS011;8915;51.760;14.300;2023-08-12T12:49:20;2.10;;;1.90;;
17592;SDS011;8915;51.760;14.300;2023-08-12T12:51:47;1.73;;;1.63;;
17592;SDS011;8915;51.760;14.300;2023-08-12T12:54:13;2.30;;;2.05;;
17592;SDS011;8915;51.760;14.300;2023-08-12T12:56:40;2.15;;;2.00;;
17592;SDS011;8915;51.760;14.300;2023-08-12T12:59:06;3.97;;;1.80;;
17592;SDS011;8915;51.760;14.300;2023-08-12T13:01:33;5.20;;;1.77;;
17592;SDS011;8915;51.760;14.300;2023-08-12T13:03:59;2.20;;;2.00;;
17592;SDS011;8915;51.760;14.300;2023-08-12T13:06:27;2.88;;;1.90;;
17592;SDS011;8915;51.760;14.300;2023-08-12T13:08:53;5.05;;;2.20;;
17592;SDS011;8915;51.760;14.300;2023-08-12T13:11:19;5.28;;;2.33;;
17592;SDS011;8915;51.760;14.300;2023-08-12T13:13:46;2.22;;;2.03;;
17592;SDS011;8915;51.760;14.300;2023-08-12T13:16:12;2.33;;;1.98;;
17592;SDS011;8915;51.760;14.300;2023-08-12T13:18:38;2.20;;;2.00;;
17592;SDS011;8915;51.760;14.300;2023-08-12T13:21:05;3.70;;;1.92;;
17592;SDS011;8915;51.760;14.300;2023-08-12T13:23:32;2.85;;;2.00;;
17592;SDS011;8915;51.760;14.300;2023-08-12T13:25:59;2.45;;;2.17;;
17592;SDS011;8915;51.760;14.300;2023-08-12T13:28:25;1.85;;;1.70;;
17592;SDS011;8915;51.760;14.300;2023-08-12T13:30:51;2.70;;;2.10;;
17592;SDS011;8915;51.760;14.300;2023-08-12T13:33:18;2.20;;;2.00;;
17592;SDS011;8915;51.760;14.300;2023-08-12T13:35:44;2.95;;;2.13;;
17592;SDS011;8915;51.760;14.300;2023-08-12T13:38:10;2.22;;;2.00;;
17592;SDS011;8915;51.760;14.300;2023-08-12T13:40:38;6.15;;;2.67;;
17592;SDS011;8915;51.760;14.300;2023-08-12T13:43:04;2.55;;;2.17;;
17592;SDS011;8915;51.760;14.300;2023-08-12T13:45:31;2.92;;;1.83;;
17592;SDS011;8915;51.760;14.300;2023-08-12T13:47:57;2.10;;;1.90;;
17592;SDS011;8915;51.760;14.300;2023-08-12T13:50:23;2.40;;;1.85;;
17592;SDS011;8915;51.760;14.300;2023-08-12T13:52:50;2.92;;;2.00;;
17592;SDS011;8915;51.760;14.300;2023-08-12T13:55:16;2.00;;;1.80;;
17592;SDS011;8915;51.760;14.300;2023-08-12T13:57:44;4.18;;;2.00;;
17592;SDS011;8915;51.760;14.300;2023-08-12T14:00:10;4.20;;;1.95;;
17592;SDS011;8915;51.760;14.300;2023-08-12T14:02:41;2.60;;;2.10;;
17592;SDS011;8915;51.760;14.300;2023-08-12T14:05:08;2.30;;;2.10;;
17592;SDS011;8915;51.760;14.300;2023-08-12T14:07:36;3.00;;;1.95;;
17592;SDS011;8915;51.760;14.300;2023-08-12T14:10:03;2.63;;;2.03;;
17592;SDS011;8915;51.760;14.300;2023-08-12T14:12:30;2.50;;;2.05;;
17592;SDS011;8915;51.760;14.300;2023-08-12T14:14:57;2.00;;;1.90;;
17592;SDS011;8915;51.760;14.300;2023-08-12T14:17:24;3.08;;;2.38;;
17592;SDS011;8915;51.760;14.300;2023-08-12T14:19:50;2.50;;;1.92;;
17592;SDS011;8915;51.760;14.300;2023-08-12T14:22:18;2.17;;;1.98;;
17592;SDS011;8915;51.760;14.300;2023-08-12T14:24:45;1.95;;;1.75;;
17592;SDS011;8915;51.760;14.300;2023-08-12T14:27:13;2.85;;;1.95;;
17592;SDS011;8915;51.760;14.300;2023-08-12T14:29:39;2.83;;;1.90;;
17592;SDS011;8915;51.760;14.300;2023-08-12T14:32:07;2.35;;;2.15;;
17592;SDS011;8915;51.760;14.300;2023-08-12T14:34:33;3.55;;;1.88;;
17592;SDS011;8915;51.760;14.300;2023-08-12T14:36:59;6.63;;;2.15;;
17592;SDS011;8915;51.760;14.300;2023-08-12T14:39:26;2.20;;;2.00;;
17592;SDS011;8915;51.760;14.300;2023-08-12T14:41:52;4.53;;;2.13;;
17592;SDS011;8915;51.760;14.300;2023-08-12T14:44:19;3.67;;;2.13;;
17592;SDS011;8915;51.760;14.300;2023-08-12T14:46:45;2.20;;;2.00;;
17592;SDS011;8915;51.760;14.300;2023-08-12T14:49:12;2.97;;;2.20;;
17592;SDS011;8915;51.760;14.300;2023-08-12T14:51:39;2.10;;;1.90;;